Time;durP1;ratioP1;P1;durP2;ratioP2;P2;SDS_P1;SDS_P2;PMS_P1;PMS_P2;Temp;Humidity;BMP_temperature;BMP_pressure;BME280_temperature;BME280_humidity;BME280_pressure;Samples;Min_cycle;Max_cycle;Signal;HPM_P1;HPM_P2
2022/11/06 00:01:27;;;;;;;12.03;6.90;;;9.90;99.90;;;;;;5055526;28;20596;-71
2022/11/06 00:03:54;;;;;;;12.23;6.60;;;9.90;99.90;;;;;;5060072;28;20702;-71
2022/11/06 00:09:09;;;;;;;12.67;6.33;;;9.80;99.90;;;;;;5052620;28;20675;-71
2022/11/06 00:11:36;;;;;;;10.50;6.30;;;9.80;99.90;;;;;;5066846;28;20229;-71
2022/11/06 00:14:03;;;;;;;11.63;6.30;;;9.80;99.90;;;;;;5054926;28;20201;-71
2022/11/06 00:16:30;;;;;;;9.83;6.53;;;9.80;99.90;;;;;;5054564;28;20201;-71
2022/11/06 00:19:00;;;;;;;11.17;6.43;;;9.70;99.90;;;;;;5061928;28;20229;-72
2022/11/06 00:21:29;;;;;;;15.40;6.50;;;9.60;99.90;;;;;;5066170;28;20210;-71
2022/11/06 00:23:57;;;;;;;12.67;6.83;;;9.60;99.90;;;;;;5062638;28;20709;-70
2022/11/06 00:26:28;;;;;;;16.60;6.93;;;9.60;99.90;;;;;;5055968;28;20381;-72
2022/11/06 00:28:55;;;;;;;15.27;7.90;;;9.60;99.90;;;;;;5054451;28;20263;-71
2022/11/06 00:31:24;;;;;;;12.00;7.23;;;9.50;99.90;;;;;;5050553;28;20272;-71
2022/11/06 00:33:51;;;;;;;17.50;7.10;;;9.50;99.90;;;;;;5053706;28;20212;-71
2022/11/06 00:36:20;;;;;;;9.30;6.30;;;9.50;99.90;;;;;;5064148;28;20210;-71
2022/11/06 00:38:47;;;;;;;11.87;6.60;;;9.50;99.90;;;;;;5062004;28;20249;-72
2022/11/06 00:41:15;;;;;;;16.30;7.27;;;9.50;99.90;;;;;;5065085;28;20654;-71
2022/11/06 00:43:48;;;;;;;14.10;7.40;;;9.50;99.90;;;;;;5052955;28;20239;-71
2022/11/06 00:46:15;;;;;;;11.87;6.90;;;9.50;99.90;;;;;;5056425;28;20507;-71
2022/11/06 00:48:42;;;;;;;10.83;6.33;;;9.50;99.90;;;;;;5065814;28;20201;-72
2022/11/06 00:51:12;;;;;;;12.67;6.93;;;9.50;99.90;;;;;;5058958;28;20202;-71
2022/11/06 00:53:39;;;;;;;13.77;7.57;;;9.50;99.90;;;;;;5052267;28;20207;-74
2022/11/06 00:56:07;;;;;;;12.17;6.97;;;9.50;99.90;;;;;;5065845;28;20224;-71
2022/11/06 00:58:35;;;;;;;11.67;6.80;;;9.40;99.90;;;;;;5058978;28;20222;-71
2022/11/06 01:01:11;;;;;;;12.47;6.23;;;9.40;99.90;;;;;;5058004;28;20232;-71
2022/11/06 01:03:38;;;;;;;11.40;6.90;;;9.40;99.90;;;;;;5066422;28;20240;-72
2022/11/06 01:06:07;;;;;;;15.10;6.57;;;9.40;99.90;;;;;;5055760;28;20198;-71
2022/11/06 01:08:34;;;;;;;12.83;7.00;;;9.40;99.90;;;;;;5056303;28;20221;-71
2022/11/06 01:11:06;;;;;;;12.27;7.07;;;9.30;99.90;;;;;;5060661;28;20658;-70
2022/11/06 01:13:33;;;;;;;10.13;6.17;;;9.40;99.90;;;;;;5061981;28;20205;-70
2022/11/06 01:15:59;;;;;;;12.97;6.43;;;9.30;99.90;;;;;;5067317;28;20686;-70
2022/11/06 01:18:28;;;;;;;8.87;6.03;;;9.30;99.90;;;;;;5065292;28;20231;-71
2022/11/06 01:20:54;;;;;;;10.17;5.97;;;9.30;99.90;;;;;;5061042;28;20205;-71
2022/11/06 01:23:21;;;;;;;12.10;6.77;;;9.30;99.90;;;;;;5061367;28;20236;-71
2022/11/06 01:25:57;;;;;;;10.57;6.80;;;9.20;99.90;;;;;;5063861;28;20518;-71
2022/11/06 01:28:24;;;;;;;13.33;6.47;;;9.20;99.90;;;;;;5072341;28;20193;-71
2022/11/06 01:30:50;;;;;;;15.70;7.30;;;9.20;99.90;;;;;;5062314;28;20691;-70
2022/11/06 01:33:17;;;;;;;13.87;7.20;;;9.20;99.90;;;;;;5056441;28;20237;-72
2022/11/06 01:35:46;;;;;;;11.17;6.63;;;9.20;99.90;;;;;;5068051;28;20607;-71
2022/11/06 01:38:13;;;;;;;16.73;7.20;;;9.10;99.90;;;;;;5056758;28;20761;-71
2022/11/06 01:40:40;;;;;;;11.83;6.87;;;9.10;99.90;;;;;;5067790;28;20220;-71
2022/11/06 01:43:14;;;;;;;10.93;6.57;;;9.10;99.90;;;;;;5056548;28;20238;-72
2022/11/06 01:45:43;;;;;;;12.53;6.67;;;9.10;99.90;;;;;;5065552;28;20255;-70
2022/11/06 01:48:11;;;;;;;12.50;7.47;;;9.10;99.90;;;;;;5058721;28;20198;-72
2022/11/06 01:50:38;;;;;;;12.17;6.67;;;9.10;99.90;;;;;;5060727;28;20206;-71
2022/11/06 01:53:07;;;;;;;14.20;7.20;;;9.00;99.90;;;;;;5068145;28;20216;-71
2022/11/06 01:55:38;;;;;;;9.80;6.83;;;9.00;99.90;;;;;;5067714;28;20201;-70
2022/11/06 01:58:07;;;;;;;12.97;6.80;;;9.00;99.90;;;;;;5073177;28;20228;-72
2022/11/06 02:00:35;;;;;;;20.43;7.67;;;9.00;99.90;;;;;;5054541;28;20212;-71
2022/11/06 02:03:02;;;;;;;14.27;7.47;;;9.00;99.90;;;;;;5056161;28;20202;-70
2022/11/06 02:05:29;;;;;;;17.03;6.90;;;8.90;99.90;;;;;;5054433;28;20659;-70
2022/11/06 02:07:58;;;;;;;12.67;6.50;;;8.90;99.90;;;;;;5066509;28;20197;-71
2022/11/06 02:10:27;;;;;;;15.33;6.67;;;8.90;99.90;;;;;;5054161;28;20233;-71
2022/11/06 02:13:16;;;;;;;17.53;7.13;;;8.90;99.90;;;;;;5061897;28;20213;-71
2022/11/06 02:15:49;;;;;;;11.03;7.30;;;8.80;99.90;;;;;;5059707;28;20250;-72
2022/11/06 02:18:34;;;;;;;14.13;7.60;;;8.80;99.90;;;;;;5061739;28;20210;-70
2022/11/06 02:21:30;;;;;;;12.70;7.07;;;8.80;99.90;;;;;;5056237;28;20272;-71
2022/11/06 02:24:40;;;;;;;11.13;7.10;;;8.80;99.90;;;;;;5061228;28;20441;-71
2022/11/06 02:27:12;;;;;;;14.67;7.80;;;8.70;99.90;;;;;;5056367;28;20236;-71
2022/11/06 02:29:46;;;;;;;11.43;6.93;;;8.70;99.90;;;;;;5058448;28;20602;-71
2022/11/06 02:32:18;;;;;;;15.83;7.30;;;8.70;99.90;;;;;;5062251;28;20213;-71
2022/11/06 02:34:50;;;;;;;13.03;7.00;;;8.70;99.90;;;;;;5056390;28;20208;-71
2022/11/06 02:37:21;;;;;;;13.10;7.17;;;8.70;99.90;;;;;;5053697;28;20206;-70
2022/11/06 02:39:51;;;;;;;12.17;7.43;;;8.60;99.90;;;;;;5057646;28;20218;-71
2022/11/06 02:42:20;;;;;;;13.87;7.87;;;8.60;99.90;;;;;;5053717;28;20232;-71
2022/11/06 02:44:51;;;;;;;14.27;7.30;;;8.60;99.90;;;;;;5065859;28;20210;-71
2022/11/06 02:47:19;;;;;;;11.37;7.57;;;8.60;99.90;;;;;;5074213;28;20697;-71
2022/11/06 02:49:49;;;;;;;15.17;7.73;;;8.60;99.90;;;;;;5060652;28;20202;-71
2022/11/06 02:52:21;;;;;;;11.50;7.50;;;8.50;99.90;;;;;;5063855;28;20201;-72
2022/11/06 02:54:52;;;;;;;14.13;7.70;;;8.60;99.90;;;;;;5059712;28;20208;-71
2022/11/06 02:57:23;;;;;;;12.00;7.80;;;8.50;99.90;;;;;;5053309;28;21948;-71
2022/11/06 02:59:54;;;;;;;12.97;7.70;;;8.50;99.90;;;;;;5068277;28;20629;-71
2022/11/06 03:02:24;;;;;;;10.13;7.03;;;8.50;99.90;;;;;;5067604;28;20201;-70
2022/11/06 03:04:55;;;;;;;11.63;7.30;;;8.50;99.90;;;;;;5058870;28;20229;-71
2022/11/06 03:07:28;;;;;;;11.50;7.00;;;8.50;99.90;;;;;;5068331;28;20216;-71
2022/11/06 03:09:55;;;;;;;11.37;7.20;;;8.50;99.90;;;;;;5055220;28;20198;-70
2022/11/06 03:12:28;;;;;;;10.50;7.00;;;8.50;99.90;;;;;;5053367;28;20194;-71
2022/11/06 03:14:59;;;;;;;12.93;7.37;;;8.50;99.90;;;;;;5053156;28;20581;-70
2022/11/06 03:17:36;;;;;;;14.40;7.73;;;8.40;99.90;;;;;;5066493;28;20197;-70
2022/11/06 03:20:12;;;;;;;12.73;7.60;;;8.40;99.90;;;;;;5069909;28;20707;-70
2022/11/06 03:22:43;;;;;;;12.67;7.33;;;8.40;99.90;;;;;;5055387;28;20705;-70
2022/11/06 03:25:18;;;;;;;11.30;7.33;;;8.40;99.90;;;;;;5052270;28;20213;-69
2022/11/06 03:27:52;;;;;;;12.40;7.77;;;8.40;99.90;;;;;;5054859;28;20206;-70
2022/11/06 03:30:19;;;;;;;13.87;7.97;;;8.30;99.90;;;;;;5066386;28;20215;-70
2022/11/06 03:32:50;;;;;;;16.00;8.33;;;8.30;99.90;;;;;;5058614;28;20206;-69
2022/11/06 03:35:22;;;;;;;15.90;8.63;;;8.30;99.90;;;;;;5053644;28;20659;-70
2022/11/06 03:37:55;;;;;;;14.00;8.33;;;8.20;99.90;;;;;;5064129;28;20198;-70
2022/11/06 03:40:25;;;;;;;14.03;7.73;;;8.20;99.90;;;;;;5062497;28;20238;-70
2022/11/06 03:42:57;;;;;;;15.47;8.57;;;8.20;99.90;;;;;;5052700;28;20241;-71
2022/11/06 03:45:27;;;;;;;15.77;8.33;;;8.10;99.90;;;;;;5053312;28;20308;-70
2022/11/06 03:47:58;;;;;;;15.30;8.13;;;8.10;99.90;;;;;;5063252;28;20228;-70
2022/11/06 03:50:29;;;;;;;15.00;8.47;;;8.10;99.90;;;;;;5053092;28;20655;-70
2022/11/06 03:53:02;;;;;;;13.20;8.13;;;8.10;99.90;;;;;;5053394;28;20206;-70
2022/11/06 03:55:32;;;;;;;12.40;8.07;;;8.00;99.90;;;;;;5055995;28;20680;-69
2022/11/06 03:58:05;;;;;;;13.80;8.83;;;8.00;99.90;;;;;;5051471;28;20284;-71
2022/11/06 04:00:33;;;;;;;12.63;7.70;;;8.00;99.90;;;;;;5055900;28;20654;-70
2022/11/06 04:03:06;;;;;;;14.87;8.80;;;7.90;99.90;;;;;;5053514;28;20216;-69
2022/11/06 04:05:35;;;;;;;15.83;9.30;;;7.90;99.90;;;;;;5052464;28;20399;-70
2022/11/06 04:13:59;;;;;;;14.10;7.83;;;7.80;99.90;;;;;;5053496;28;20197;-71
2022/11/06 04:16:30;;;;;;;12.20;8.40;;;7.70;99.90;;;;;;5065710;28;20251;-70
2022/11/06 04:18:57;;;;;;;14.27;7.27;;;7.70;99.90;;;;;;5056699;28;20246;-69
2022/11/06 04:21:31;;;;;;;12.10;7.73;;;7.70;99.90;;;;;;5064783;28;20435;-70
2022/11/06 04:27:07;;;;;;;11.33;7.37;;;7.60;99.90;;;;;;5058020;28;20302;-70
2022/11/06 04:29:46;;;;;;;14.87;7.57;;;7.60;99.90;;;;;;5058372;28;20202;-70
2022/11/06 04:32:19;;;;;;;14.87;8.17;;;7.60;99.90;;;;;;5064471;28;20584;-70
2022/11/06 04:34:49;;;;;;;12.27;7.63;;;7.60;99.90;;;;;;5061090;28;20216;-69
2022/11/06 04:37:25;;;;;;;15.23;8.40;;;7.60;99.90;;;;;;5054901;28;20214;-70
2022/11/06 04:40:00;;;;;;;13.87;8.50;;;7.60;99.90;;;;;;5062361;28;20224;-70
2022/11/06 04:42:32;;;;;;;16.87;8.27;;;7.60;99.90;;;;;;5055090;28;20206;-69
2022/11/06 04:45:03;;;;;;;15.57;8.30;;;7.50;99.90;;;;;;5067738;28;20220;-70
2022/11/06 04:47:31;;;;;;;17.23;9.00;;;7.50;99.90;;;;;;5063712;28;20205;-70
2022/11/06 04:50:00;;;;;;;16.27;8.70;;;7.50;99.90;;;;;;5059991;28;20316;-70
2022/11/06 04:52:29;;;;;;;15.40;9.03;;;7.50;99.90;;;;;;5073784;28;20209;-70
2022/11/06 04:54:57;;;;;;;16.70;9.07;;;7.50;99.90;;;;;;5057294;28;20205;-70
2022/11/06 04:57:26;;;;;;;13.90;8.47;;;7.50;99.90;;;;;;5055760;28;20209;-70
2022/11/06 04:59:53;;;;;;;12.63;8.47;;;7.50;99.90;;;;;;5058851;28;20593;-70
2022/11/06 05:02:21;;;;;;;13.67;9.10;;;7.50;99.90;;;;;;5054551;28;20213;-70
2022/11/06 05:04:47;;;;;;;16.77;8.67;;;7.40;99.90;;;;;;5063111;28;20205;-69
2022/11/06 05:07:16;;;;;;;15.73;8.63;;;7.40;99.90;;;;;;5060851;28;20206;-69
2022/11/06 05:09:44;;;;;;;14.07;8.60;;;7.40;99.90;;;;;;5064555;28;20200;-69
2022/11/06 05:12:11;;;;;;;14.10;8.20;;;7.40;99.90;;;;;;5062658;28;20296;-69
2022/11/06 05:14:38;;;;;;;12.23;8.07;;;7.30;99.90;;;;;;5063449;28;20573;-69
2022/11/06 05:17:04;;;;;;;15.43;8.90;;;7.30;99.90;;;;;;5060460;28;20217;-70
2022/11/06 05:19:33;;;;;;;16.70;9.00;;;7.30;99.90;;;;;;5060879;28;20228;-69
2022/11/06 05:24:43;;;;;;;13.80;8.47;;;7.30;99.90;;;;;;5069100;28;20227;-69
2022/11/06 05:27:10;;;;;;;13.97;8.47;;;7.30;99.90;;;;;;5060150;28;20206;-70
2022/11/06 05:29:37;;;;;;;13.70;8.27;;;7.30;99.90;;;;;;5058985;28;20600;-69
2022/11/06 05:32:04;;;;;;;19.30;8.73;;;7.30;99.90;;;;;;5054409;28;20202;-70
2022/11/06 05:34:32;;;;;;;15.30;9.23;;;7.30;99.90;;;;;;5055222;28;20202;-70
2022/11/06 05:36:59;;;;;;;15.03;8.30;;;7.30;99.90;;;;;;5054039;28;20214;-70
2022/11/06 05:39:26;;;;;;;11.40;7.37;;;7.30;99.90;;;;;;5055341;28;20217;-70
2022/11/06 05:41:52;;;;;;;13.77;8.23;;;7.60;99.90;;;;;;5066603;28;20320;-70
2022/11/06 05:44:19;;;;;;;13.73;8.27;;;7.20;99.90;;;;;;5062390;28;20729;-70
2022/11/06 05:46:46;;;;;;;13.23;8.27;;;7.20;99.90;;;;;;5062580;28;20274;-69
2022/11/06 05:49:13;;;;;;;13.50;7.93;;;7.10;99.90;;;;;;5059543;28;20289;-70
2022/11/06 05:51:41;;;;;;;13.80;7.33;;;7.20;99.90;;;;;;5058235;28;20217;-70
2022/11/06 05:54:08;;;;;;;12.00;7.63;;;7.20;99.90;;;;;;5061368;28;20209;-70
2022/11/06 05:56:35;;;;;;;15.27;8.60;;;7.20;99.90;;;;;;5065468;28;20212;-69
2022/11/06 05:59:01;;;;;;;15.93;7.70;;;7.20;99.90;;;;;;5054282;28;20237;-70
2022/11/06 06:01:28;;;;;;;13.23;7.90;;;7.20;99.90;;;;;;5056531;28;20208;-70
2022/11/06 06:03:55;;;;;;;15.37;7.67;;;7.20;99.90;;;;;;5059328;28;20205;-71
2022/11/06 06:06:22;;;;;;;15.30;7.53;;;7.10;99.90;;;;;;5068001;28;20209;-69
2022/11/06 06:08:50;;;;;;;16.53;7.53;;;7.20;99.90;;;;;;5074074;28;20213;-69
2022/11/06 06:11:17;;;;;;;13.47;7.50;;;7.00;99.90;;;;;;5063269;28;20206;-71
2022/11/06 06:13:44;;;;;;;11.73;7.63;;;7.00;99.90;;;;;;5065433;28;20213;-70
2022/11/06 06:16:10;;;;;;;13.37;8.40;;;7.00;99.90;;;;;;5062634;28;20201;-70
2022/11/06 06:18:37;;;;;;;12.40;8.67;;;7.00;99.90;;;;;;5060773;28;20210;-70
2022/11/06 06:21:05;;;;;;;17.93;9.20;;;7.00;99.90;;;;;;5063082;28;20206;-71
2022/11/06 06:23:32;;;;;;;15.87;8.97;;;7.10;99.90;;;;;;5059880;28;20253;-70
2022/11/06 06:26:00;;;;;;;16.40;9.33;;;7.10;99.90;;;;;;5056567;28;20221;-70
2022/11/06 06:28:28;;;;;;;13.80;8.80;;;7.10;99.90;;;;;;5057418;28;20228;-70
2022/11/06 06:30:54;;;;;;;15.77;8.90;;;7.10;99.90;;;;;;5068491;28;20212;-70
2022/11/06 06:33:21;;;;;;;9.87;7.37;;;7.10;99.90;;;;;;5057218;28;20217;-70
2022/11/06 06:35:48;;;;;;;10.50;8.00;;;7.10;99.90;;;;;;5059597;28;20209;-70
2022/11/06 06:38:15;;;;;;;11.37;8.20;;;7.10;99.90;;;;;;5066235;28;20209;-70
2022/11/06 06:40:41;;;;;;;13.70;8.93;;;7.20;99.90;;;;;;5056994;28;20569;-70
2022/11/06 06:43:10;;;;;;;11.63;8.13;;;7.20;99.90;;;;;;5062714;28;20311;-70
2022/11/06 06:45:36;;;;;;;12.80;7.83;;;7.20;99.90;;;;;;5056902;28;20221;-69
2022/11/06 06:48:04;;;;;;;12.33;8.33;;;7.30;99.90;;;;;;5052525;28;20213;-68
2022/11/06 06:50:30;;;;;;;11.03;7.53;;;7.30;99.90;;;;;;5059784;28;20208;-70
2022/11/06 06:52:57;;;;;;;15.87;8.03;;;7.40;99.90;;;;;;5056750;28;20206;-71
2022/11/06 06:55:25;;;;;;;13.47;8.10;;;7.20;99.90;;;;;;5059096;28;20202;-69
2022/11/06 06:57:57;;;;;;;14.87;8.40;;;7.20;99.90;;;;;;5064581;28;20589;-69
2022/11/06 07:00:25;;;;;;;21.33;8.50;;;7.30;99.90;;;;;;5058467;28;20705;-69
2022/11/06 07:02:52;;;;;;;16.63;8.33;;;7.30;99.90;;;;;;5064195;28;20673;-70
2022/11/06 07:05:19;;;;;;;12.57;8.27;;;7.40;99.90;;;;;;5061518;28;20206;-70
2022/11/06 07:07:46;;;;;;;11.67;8.53;;;7.40;99.90;;;;;;5059748;28;20213;-68
2022/11/06 07:10:13;;;;;;;11.83;8.50;;;7.30;99.90;;;;;;5062185;28;20206;-68
2022/11/06 07:12:39;;;;;;;14.10;7.93;;;7.30;99.90;;;;;;5056686;28;20209;-69
2022/11/06 07:15:08;;;;;;;13.73;7.93;;;7.50;99.90;;;;;;5053442;28;20292;-76
2022/11/06 07:17:36;;;;;;;11.17;7.33;;;7.40;99.90;;;;;;5062442;28;20213;-73
2022/11/06 07:20:04;;;;;;;14.13;8.00;;;7.40;99.90;;;;;;5067121;28;20229;-71
2022/11/06 07:22:31;;;;;;;15.10;8.83;;;7.40;99.90;;;;;;5072004;28;20229;-71
2022/11/06 07:24:57;;;;;;;11.07;8.03;;;7.50;99.90;;;;;;5068343;28;20232;-71
2022/11/06 07:27:24;;;;;;;15.47;8.57;;;7.50;99.90;;;;;;5066035;28;20576;-69
2022/11/06 07:29:51;;;;;;;13.23;8.77;;;7.60;99.90;;;;;;5055392;28;20628;-69
2022/11/06 07:32:18;;;;;;;12.27;8.63;;;7.70;99.90;;;;;;5063088;28;20201;-74
2022/11/06 07:34:46;;;;;;;11.03;8.30;;;7.80;99.90;;;;;;5070244;28;20244;-70
2022/11/06 07:37:12;;;;;;;11.57;8.20;;;7.80;99.90;;;;;;5066910;28;20684;-74
2022/11/06 07:39:39;;;;;;;11.83;8.27;;;8.00;99.90;;;;;;5066624;28;20236;-76
2022/11/06 07:42:06;;;;;;;12.60;7.77;;;8.00;99.90;;;;;;5065066;28;20209;-72
2022/11/06 07:44:33;;;;;;;12.67;8.50;;;7.90;99.90;;;;;;5058754;28;20237;-70
2022/11/06 07:47:00;;;;;;;17.20;8.77;;;7.90;99.90;;;;;;5054492;28;20213;-74
2022/11/06 07:49:26;;;;;;;14.00;9.33;;;7.90;99.90;;;;;;5062331;28;20209;-74
2022/11/06 07:51:55;;;;;;;14.67;9.27;;;7.90;99.90;;;;;;5064751;28;20210;-74
2022/11/06 07:54:21;;;;;;;18.43;9.03;;;8.00;99.90;;;;;;5063837;28;20211;-70
2022/11/06 07:56:48;;;;;;;19.50;9.68;;;8.10;99.90;;;;;;5056538;28;20450;-70
2022/11/06 07:59:15;;;;;;;13.07;9.20;;;8.10;99.90;;;;;;5067637;28;20228;-74
2022/11/06 08:01:42;;;;;;;12.93;7.93;;;8.20;99.90;;;;;;5061141;28;20212;-70
2022/11/06 08:04:11;;;;;;;12.20;7.80;;;8.20;99.90;;;;;;5064323;28;20213;-73
2022/11/06 08:06:38;;;;;;;12.10;7.90;;;8.20;99.90;;;;;;5065376;28;20696;-73
2022/11/06 08:09:08;;;;;;;11.57;8.30;;;8.30;99.90;;;;;;5058335;28;20576;-71
2022/11/06 08:11:35;;;;;;;13.40;9.17;;;8.30;99.90;;;;;;5057011;28;20689;-71
2022/11/06 08:14:02;;;;;;;13.43;9.47;;;8.30;99.90;;;;;;5053015;28;20210;-71
2022/11/06 08:16:29;;;;;;;12.10;8.67;;;8.40;99.90;;;;;;5065426;28;20244;-70
2022/11/06 08:18:56;;;;;;;18.27;8.00;;;8.40;99.90;;;;;;5055074;28;20229;-69
2022/11/06 08:21:22;;;;;;;14.53;8.10;;;8.40;99.90;;;;;;5052045;28;20986;-69
2022/11/06 08:23:49;;;;;;;12.17;8.43;;;8.40;99.90;;;;;;5049939;28;20433;-70
2022/11/06 08:26:18;;;;;;;10.77;7.97;;;8.40;99.90;;;;;;5071184;28;20201;-68
2022/11/06 08:28:45;;;;;;;12.57;8.47;;;8.40;99.90;;;;;;5056317;28;20206;-68
2022/11/06 08:31:12;;;;;;;12.33;8.50;;;8.50;99.90;;;;;;5065429;28;20198;-68
2022/11/06 08:33:39;;;;;;;11.40;8.10;;;8.60;99.90;;;;;;5062462;28;20209;-66
2022/11/06 08:36:08;;;;;;;13.27;8.97;;;8.80;99.90;;;;;;5052715;28;20208;-67
2022/11/06 08:38:35;;;;;;;13.57;8.97;;;8.90;99.90;;;;;;5049822;28;20625;-68
2022/11/06 08:41:05;;;;;;;14.27;8.73;;;8.90;99.90;;;;;;5062776;28;20256;-67
2022/11/06 08:43:33;;;;;;;15.70;8.73;;;8.90;99.90;;;;;;5061505;28;20656;-72
2022/11/06 08:46:00;;;;;;;13.93;8.33;;;9.00;99.90;;;;;;5060634;28;20201;-67
2022/11/06 08:48:27;;;;;;;23.30;11.70;;;9.10;99.90;;;;;;5050910;28;20651;-66
2022/11/06 08:50:54;;;;;;;9.77;7.63;;;9.30;99.90;;;;;;5050875;28;20214;-69
2022/11/06 08:53:21;;;;;;;11.77;7.77;;;9.30;99.90;;;;;;5050363;28;20202;-68
2022/11/06 08:55:48;;;;;;;15.67;9.23;;;9.30;99.90;;;;;;5055180;28;20213;-69
2022/11/06 08:58:15;;;;;;;13.27;8.77;;;9.30;99.90;;;;;;5061338;28;20205;-68
2022/11/06 09:00:43;;;;;;;14.73;9.17;;;9.40;99.90;;;;;;5050373;28;20226;-67
2022/11/06 09:03:12;;;;;;;11.50;8.57;;;9.40;99.90;;;;;;5061587;28;20201;-68
2022/11/06 09:05:40;;;;;;;14.20;10.30;;;9.40;99.90;;;;;;5069182;28;20273;-68
2022/11/06 09:08:07;;;;;;;13.23;8.90;;;9.50;99.90;;;;;;5063324;28;20201;-69
2022/11/06 09:10:34;;;;;;;11.97;8.37;;;9.60;99.90;;;;;;5064404;28;20198;-69
2022/11/06 09:13:01;;;;;;;10.00;8.37;;;10.10;99.90;;;;;;5063225;28;20571;-67
2022/11/06 09:15:28;;;;;;;14.63;8.67;;;10.40;99.90;;;;;;5057771;28;20615;-68
2022/11/06 09:17:56;;;;;;;16.63;9.33;;;10.40;99.90;;;;;;5058065;28;20206;-68
2022/11/06 09:20:24;;;;;;;14.33;9.33;;;10.40;99.90;;;;;;5058643;28;20229;-67
2022/11/06 09:22:51;;;;;;;13.80;10.37;;;10.60;99.90;;;;;;5054445;28;20252;-68
2022/11/06 09:25:19;;;;;;;14.23;9.83;;;11.20;99.90;;;;;;5053037;28;20666;-68
2022/11/06 09:27:47;;;;;;;15.13;10.03;;;11.60;99.90;;;;;;5065994;28;20592;-68
2022/11/06 09:30:16;;;;;;;20.43;11.93;;;11.80;99.90;;;;;;5074524;28;20677;-68
2022/11/06 09:32:46;;;;;;;19.30;11.13;;;11.90;99.90;;;;;;5060087;28;20659;-69
2022/11/06 09:35:14;;;;;;;14.07;9.70;;;12.00;99.90;;;;;;5065386;28;20280;-70
2022/11/06 09:37:41;;;;;;;13.13;9.03;;;12.30;99.90;;;;;;5059470;28;20206;-68
2022/11/06 09:40:15;;;;;;;14.23;10.10;;;12.20;99.90;;;;;;5065946;28;20720;-68
2022/11/06 09:42:52;;;;;;;13.73;11.27;;;11.90;99.90;;;;;;5065343;28;20244;-68
2022/11/06 09:45:22;;;;;;;16.77;11.37;;;11.60;99.90;;;;;;5063374;28;20674;-68
2022/11/06 09:47:53;;;;;;;15.93;11.27;;;11.20;99.90;;;;;;5057381;28;20213;-71
2022/11/06 09:50:26;;;;;;;21.47;12.37;;;11.00;99.90;;;;;;5051428;28;20213;-71
2022/11/06 09:52:57;;;;;;;17.27;11.20;;;11.10;99.90;;;;;;5054095;28;20214;-70
2022/11/06 09:55:29;;;;;;;13.33;10.07;;;11.50;99.90;;;;;;5059238;28;20646;-70
2022/11/06 09:57:58;;;;;;;14.70;10.60;;;11.10;99.90;;;;;;5068357;28;20566;-71
2022/11/06 10:00:25;;;;;;;14.33;9.93;;;11.30;99.90;;;;;;5053057;28;20241;-70
2022/11/06 10:02:54;;;;;;;17.53;11.03;;;11.30;99.90;;;;;;5053732;28;20206;-70
2022/11/06 10:05:30;;;;;;;13.23;10.07;;;10.90;99.90;;;;;;5055115;28;20236;-68
2022/11/06 10:08:00;;;;;;;13.93;10.43;;;10.70;99.90;;;;;;5051723;28;20202;-69
2022/11/06 10:10:31;;;;;;;18.73;10.10;;;10.60;99.90;;;;;;5054214;28;20218;-71
2022/11/06 10:13:14;;;;;;;12.77;9.40;;;10.30;99.90;;;;;;5056868;28;20194;-71
2022/11/06 10:15:49;;;;;;;17.47;10.20;;;10.30;99.90;;;;;;5062725;28;20193;-70
2022/11/06 10:18:23;;;;;;;20.27;10.60;;;10.20;99.90;;;;;;5054071;28;20204;-75
2022/11/06 10:20:54;;;;;;;13.30;9.40;;;10.30;99.90;;;;;;5052888;28;20214;-71
2022/11/06 10:23:27;;;;;;;11.77;9.33;;;10.30;99.90;;;;;;5059704;28;20235;-71
2022/11/06 10:26:05;;;;;;;11.87;9.70;;;10.40;99.90;;;;;;5063339;28;20688;-70
2022/11/06 10:28:45;;;;;;;16.07;9.63;;;10.60;99.90;;;;;;5062036;28;20669;-71
2022/11/06 10:31:20;;;;;;;12.40;8.30;;;10.60;99.90;;;;;;5057384;28;20194;-71
2022/11/06 10:33:56;;;;;;;14.87;8.60;;;11.00;99.90;;;;;;5065510;28;20208;-72
2022/11/06 10:36:29;;;;;;;10.43;7.73;;;11.70;99.90;;;;;;5057667;28;20202;-71
2022/11/06 10:38:58;;;;;;;13.10;9.00;;;12.20;99.90;;;;;;5058215;28;20206;-70
2022/11/06 10:41:28;;;;;;;12.57;7.50;;;13.00;99.90;;;;;;5066790;28;20263;-71
2022/11/06 10:43:59;;;;;;;11.47;7.97;;;14.70;99.90;;;;;;5060168;28;20246;-72
2022/11/06 10:46:33;;;;;;;11.63;7.53;;;15.40;99.90;;;;;;5056737;28;20194;-71
2022/11/06 10:49:02;;;;;;;11.07;7.97;;;15.50;99.90;;;;;;5053220;28;20228;-72
2022/11/06 10:51:51;;;;;;;13.00;9.07;;;15.40;99.90;;;;;;5052323;28;20207;-71
2022/11/06 10:54:38;;;;;;;9.97;8.50;;;15.50;99.90;;;;;;5054567;28;20212;-72
2022/11/06 10:57:23;;;;;;;12.17;8.13;;;16.00;99.90;;;;;;5054522;28;20216;-71
2022/11/06 10:59:50;;;;;;;10.95;8.07;;;17.20;99.90;;;;;;5057958;28;20626;-72
2022/11/06 11:02:27;;;;;;;11.85;8.55;;;18.60;99.90;;;;;;5059477;28;20225;-73
2022/11/06 11:04:54;;;;;;;10.50;8.75;;;19.70;99.90;;;;;;5056936;28;20630;-73
2022/11/06 11:07:23;;;;;;;14.27;7.75;;;22.30;99.90;;;;;;5061122;28;20201;-69
2022/11/06 11:09:50;;;;;;;10.77;7.75;;;25.40;93.30;;;;;;5059640;28;20534;-71
2022/11/06 11:12:23;;;;;;;9.07;7.00;;;28.60;73.00;;;;;;5055390;28;20198;-68
2022/11/06 11:15:14;;;;;;;9.27;7.15;;;30.90;56.80;;;;;;5052085;28;20202;-70
2022/11/06 11:17:42;;;;;;;9.85;7.78;;;31.70;50.90;;;;;;5055807;28;20205;-69
2022/11/06 11:20:31;;;;;;;11.15;7.60;;;32.30;49.20;;;;;;5056240;28;20301;-69
2022/11/06 11:23:15;;;;;;;10.55;7.72;;;33.50;46.70;;;;;;5053315;28;20252;-68
2022/11/06 11:25:43;;;;;;;10.18;9.07;;;34.80;43.80;;;;;;5056444;28;20210;-68
2022/11/06 11:28:22;;;;;;;9.57;7.97;;;36.40;41.50;;;;;;5059874;28;20684;-70
2022/11/06 11:30:53;;;;;;;9.38;7.35;;;37.80;38.50;;;;;;5059376;28;20201;-69
2022/11/06 11:33:22;;;;;;;9.10;8.10;;;39.00;36.20;;;;;;5057457;28;20206;-70
2022/11/06 11:35:50;;;;;;;10.43;8.02;;;39.40;34.70;;;;;;5057459;28;20228;-70
2022/11/06 11:38:20;;;;;;;10.05;7.82;;;39.60;33.70;;;;;;5054846;28;20202;-70
2022/11/06 11:40:48;;;;;;;10.80;7.35;;;39.70;33.30;;;;;;5062712;28;20221;-72
2022/11/06 11:43:26;;;;;;;10.13;8.15;;;40.30;32.80;;;;;;5051970;28;20286;-72
2022/11/06 11:46:17;;;;;;;10.20;7.85;;;39.50;30.90;;;;;;5059001;28;20202;-71
2022/11/06 11:48:45;;;;;;;9.93;8.45;;;37.30;31.50;;;;;;5066223;28;20209;-71
2022/11/06 11:51:33;;;;;;;10.27;8.07;;;34.50;33.60;;;;;;5057158;28;20213;-71
2022/11/06 11:54:06;;;;;;;10.73;7.50;;;31.40;36.30;;;;;;5051611;28;20205;-71
2022/11/06 11:56:35;;;;;;;10.38;8.35;;;28.30;39.80;;;;;;5066166;28;20676;-71
2022/11/06 11:59:02;;;;;;;14.73;9.77;;;25.80;42.70;;;;;;5058846;28;20236;-72
2022/11/06 12:01:40;;;;;;;14.63;10.38;;;23.70;45.70;;;;;;5054900;28;20590;-72
2022/11/06 12:04:19;;;;;;;13.00;10.00;;;22.00;48.60;;;;;;5061911;28;20638;-72
2022/11/06 12:06:58;;;;;;;13.13;10.52;;;20.80;50.80;;;;;;5069787;28;20208;-71
2022/11/06 12:09:28;;;;;;;17.77;11.52;;;19.90;52.80;;;;;;5061431;28;20208;-72
2022/11/06 12:11:57;;;;;;;14.82;10.40;;;19.00;54.80;;;;;;5054147;28;20221;-73
2022/11/06 12:14:35;;;;;;;15.20;10.73;;;18.30;56.60;;;;;;5061225;28;20209;-71
2022/11/06 12:17:17;;;;;;;16.52;11.40;;;17.60;58.40;;;;;;5055558;28;20210;-72
2022/11/06 12:19:50;;;;;;;18.55;11.38;;;17.00;59.90;;;;;;5063139;28;20259;-71
2022/11/06 12:22:24;;;;;;;14.07;10.82;;;16.40;61.70;;;;;;5052051;28;20241;-73
2022/11/06 12:24:56;;;;;;;16.10;10.48;;;15.90;63.90;;;;;;5058360;28;20208;-72
2022/11/06 12:27:27;;;;;;;15.15;9.80;;;15.40;65.80;;;;;;5065787;28;20208;-72
2022/11/06 12:30:03;;;;;;;15.52;9.88;;;15.10;67.50;;;;;;5063846;28;20198;-72
2022/11/06 12:32:41;;;;;;;15.87;8.57;;;14.70;69.30;;;;;;5064441;28;20540;-72
2022/11/06 12:35:20;;;;;;;12.17;8.20;;;14.40;70.80;;;;;;5050546;28;20220;-71
2022/11/06 12:37:56;;;;;;;13.93;8.67;;;14.20;72.20;;;;;;5053006;28;20225;-72
2022/11/06 12:40:29;;;;;;;10.97;7.40;;;14.00;74.10;;;;;;5050346;28;20202;-71
2022/11/06 12:43:06;;;;;;;12.17;8.27;;;13.80;75.90;;;;;;5056777;28;20238;-71
2022/11/06 12:45:52;;;;;;;15.10;9.40;;;13.60;77.50;;;;;;5053980;28;20225;-72
2022/11/06 12:48:33;;;;;;;14.50;8.87;;;13.40;79.60;;;;;;5052057;28;20194;-72
2022/11/06 12:51:07;;;;;;;13.23;9.87;;;13.30;82.20;;;;;;5055950;28;20689;-72
2022/11/06 12:53:43;;;;;;;15.10;9.20;;;13.10;84.70;;;;;;5052340;28;20225;-72
2022/11/06 12:56:18;;;;;;;15.37;9.53;;;13.00;87.90;;;;;;5063384;28;20201;-72
2022/11/06 12:58:57;;;;;;;16.50;8.93;;;12.80;90.40;;;;;;5055190;28;20315;-71
2022/11/06 13:01:36;;;;;;;12.33;7.43;;;12.60;92.20;;;;;;5055414;28;20601;-71
2022/11/06 13:04:29;;;;;;;16.77;8.77;;;12.40;93.80;;;;;;5055031;28;20206;-72
2022/11/06 13:07:10;;;;;;;11.57;7.43;;;12.30;95.80;;;;;;5054258;28;20206;-72
2022/11/06 13:09:43;;;;;;;15.03;8.40;;;12.20;97.40;;;;;;5054923;28;20209;-71
2022/11/06 13:12:19;;;;;;;10.00;7.00;;;12.10;98.80;;;;;;5056967;28;20212;-72
2022/11/06 13:14:54;;;;;;;10.80;7.00;;;12.10;99.90;;;;;;5061850;28;20708;-72